CYBCCYQB

Guest
Details From CYBC - Baie Comeau
To CYQB - Quebec Jean Lesage Intl
Flight Number -
Tags Generated
Created
Modified
Stats Distance 190 nm / 352 km
Max Altitude 0 ft / 0 m
Waypoints 2
Social Downloads 2
Likes 0
Share VATSIM

Download

Looking for another format? Having issues loading an existing format? Contact us
Advertisement - Login to hide

Notes

Generated

Route

CYBC CYQB

ID Type Via Altitude Latitude Longitude Leg Dist Tot Dist Heading (true) Name
O CYBC APT - 0 ft / 0 m 49.13092˚ -68.21957˚ - 0 nm - -
O CYQB APT - 0 ft / 0 m 46.78883˚ -71.40294˚ 190 nm 190 nm 224° / 221° -

Altitude Profile

Advertisement - Login to hide

Weather


0- 5 10 15 20 25 30 35+ Temperature / ° C

Clouds and Precipitation
Forecast for 2017-12-15 12:00 UTC. Updated an hour ago

Ground ~20,000 ft ~40,000 ft Winds

CYBC

Details ICAO CYBC (YBC)
Name BAIE COMEAU
Region Canada
Timezone America/Montreal (UTC-5.0)
Stats Elevation 71 ft / 22 m (AMSL)
Location 49.132270° -68.207207°
Runways 1
Magnetic Variation 17.848° W

METAR

CYBC 151000Z AUTO 26013G20KT 9SM OVC095 M14/M19 A2950 RMK SLP992

Decode

TAF

TAF CYBC 150742Z 1508/1520 26020G30KT 6SM -SN SCT040 BKN120 TEMPO 1508/1511 21/2SM -SN BLSN BKN040 OVC120 FM151100 26015G25KT P6SM SCT030 BKN140 TEMPO 1511/1514 3SM -SHSN BLSN BKN030 OVC140 RMK FCST BASED ON AUTO OBS. NXT FCST BY 151400Z

Decode

Departure Runways

ID Width Length Bearing (true) Bearing (mag) Surface Threshold Offset Overrun Length
10 150 ft / 46 m 5,984 ft / 1,824 m 80.50° 98.35° Asphalt 0 ft / 0 m 0 ft / 0 m
28 150 ft / 46 m 5,984 ft / 1,824 m 260.52° 278.37° Asphalt 0 ft / 0 m 0 ft / 0 m

CYQB

Details ICAO CYQB (YQB)
Name Quebec Jean Lesage Intl
Region Canada
Timezone America/Montreal (UTC-5.0)
Stats Elevation 244 ft / 74 m (AMSL)
Location 46.789458° -71.392764°
Runways 2
Magnetic Variation 15.837° W

METAR

CYQB 151000Z 26012KT 15SM FEW012 M20/M24 A2991 RMK SC1 SC TR SLP138

Decode

TAF

TAF TAF CYQB 150543Z 1506/1606 25012G22KT P6SM FEW012 FEW140 FM151300 25010G20KT P6SM SCT020 BECMG 1518/1520 24008KT FM152300 VRB03KT P6SM BKN020 BKN140 FM160400 VRB03KT 5SM -SN OVC015 RMK NXT FCST BY 151200Z

Decode

Destination Runways

ID Width Length Bearing (true) Bearing (mag) Surface Threshold Offset Overrun Length
06 150 ft / 46 m 9,020 ft / 2,749 m 44.00° 59.84° Asphalt 0 ft / 0 m 0 ft / 0 m
12 150 ft / 46 m 5,678 ft / 1,731 m 97.58° 113.42° Asphalt 0 ft / 0 m 0 ft / 0 m
24 150 ft / 46 m 9,020 ft / 2,749 m 224.02° 239.86° Asphalt 0 ft / 0 m 0 ft / 0 m
30 150 ft / 46 m 5,678 ft / 1,731 m 277.60° 293.44° Asphalt 0 ft / 0 m 0 ft / 0 m

Approach Navaids

Runway Type Ident Frequency Range Bearing (true) Bearing (mag) Slope Elevation
06 Localiser IQB 109.50 MHz 18 nm / 33 km 44.33° 60.17° - 197 ft / 60 m (AMSL)
06 Glidescope IQB 109.50 MHz 18 nm / 33 km 42.00° 57.84° 3.00° 233 ft / 71 m (AMSL)

Popular Alternatives